createdAt,value
2023-09-07T00:00:13.468Z,21.99
2023-09-07T00:02:15.908Z,21.98
2023-09-07T00:04:18.533Z,21.94
2023-09-07T00:06:21.255Z,21.92
2023-09-07T00:08:23.670Z,21.94
2023-09-07T00:10:27.469Z,21.92
2023-09-07T00:12:29.762Z,21.89
2023-09-07T00:14:32.294Z,21.87
2023-09-07T00:16:39.614Z,21.86
2023-09-07T00:18:42.132Z,21.85
2023-09-07T00:20:44.673Z,21.80
2023-09-07T00:22:47.116Z,21.80
2023-09-07T00:24:49.485Z,21.76
2023-09-07T00:26:51.843Z,21.67
2023-09-07T00:28:54.499Z,21.63
2023-09-07T00:30:56.933Z,21.43
2023-09-07T00:32:59.370Z,21.39
2023-09-07T00:35:02.050Z,21.45
2023-09-07T00:37:04.808Z,21.52
2023-09-07T00:39:07.212Z,21.58
2023-09-07T00:41:09.720Z,21.62
2023-09-07T00:43:12.606Z,21.65
2023-09-07T00:45:15.310Z,21.69
2023-09-07T00:47:18.462Z,21.71
2023-09-07T00:49:21.240Z,21.73
2023-09-07T00:51:24.074Z,21.70
2023-09-07T00:53:28.393Z,21.70
2023-09-07T00:55:34.494Z,21.71
2023-09-07T00:57:38.380Z,21.68
2023-09-07T00:59:40.984Z,21.67
2023-09-07T01:01:44.670Z,21.65
2023-09-07T01:03:47.617Z,21.62
2023-09-07T01:05:53.212Z,21.58
2023-09-07T01:08:28.176Z,21.56
2023-09-07T01:10:30.690Z,21.51
2023-09-07T01:12:33.382Z,21.51
2023-09-07T01:14:35.795Z,21.49
2023-09-07T01:16:41.811Z,21.48
2023-09-07T01:18:44.679Z,21.46
2023-09-07T01:20:50.154Z,21.38
2023-09-07T01:22:52.976Z,21.36
2023-09-07T01:24:57.196Z,21.34
2023-09-07T01:27:00.718Z,21.27
2023-09-07T01:29:03.514Z,21.24
2023-09-07T01:31:07.532Z,21.19
2023-09-07T01:33:10.270Z,21.16
2023-09-07T01:35:14.553Z,21.12
2023-09-07T01:37:17.189Z,21.06
2023-09-07T01:39:19.565Z,21.06
2023-09-07T01:41:22.255Z,20.95
2023-09-07T01:43:24.709Z,20.93
2023-09-07T01:45:27.601Z,20.87
2023-09-07T01:47:30.238Z,20.86
2023-09-07T01:49:32.994Z,20.70
2023-09-07T01:51:36.227Z,20.63
2023-09-07T01:53:38.691Z,20.57
2023-09-07T01:55:41.107Z,20.55
2023-09-07T01:57:43.919Z,20.57
2023-09-07T01:59:46.388Z,20.63
2023-09-07T02:01:48.964Z,20.66
2023-09-07T02:03:51.435Z,20.69
2023-09-07T02:05:55.282Z,20.70
2023-09-07T02:07:57.819Z,20.71
2023-09-07T02:10:00.458Z,20.74
2023-09-07T02:12:05.459Z,20.73
2023-09-07T02:14:08.207Z,20.73
2023-09-07T02:16:10.925Z,20.73
2023-09-07T02:18:13.491Z,20.71
2023-09-07T02:20:16.217Z,20.68
2023-09-07T02:22:18.639Z,20.67
2023-09-07T02:24:21.208Z,20.63
2023-09-07T02:26:23.868Z,20.60
2023-09-07T02:28:26.944Z,20.60
2023-09-07T02:30:30.133Z,20.58
2023-09-07T02:32:35.135Z,20.56
2023-09-07T02:34:37.765Z,20.55
2023-09-07T02:36:40.477Z,20.54
2023-09-07T02:38:42.938Z,20.51
2023-09-07T02:40:45.726Z,20.51
2023-09-07T02:42:49.312Z,20.48
2023-09-07T02:44:51.805Z,20.47
2023-09-07T02:46:54.208Z,20.45
2023-09-07T02:48:59.061Z,20.44
2023-09-07T02:51:02.510Z,20.39
2023-09-07T02:53:05.841Z,20.39
2023-09-07T02:55:09.216Z,20.37
2023-09-07T02:57:12.409Z,20.32
2023-09-07T02:59:15.343Z,20.29
2023-09-07T03:01:22.303Z,20.29
2023-09-07T03:03:26.253Z,20.28
2023-09-07T03:05:29.785Z,20.27
2023-09-07T03:07:35.476Z,20.25
2023-09-07T03:09:39.196Z,20.25
2023-09-07T03:11:42.283Z,20.23
2023-09-07T03:13:45.473Z,20.19
2023-09-07T03:15:48.761Z,20.20
2023-09-07T03:17:51.513Z,20.18
2023-09-07T03:19:53.918Z,20.18
2023-09-07T03:21:56.674Z,20.17
2023-09-07T03:23:59.473Z,20.16
2023-09-07T03:26:02.566Z,20.14
2023-09-07T03:28:05.936Z,20.15
2023-09-07T03:30:11.471Z,20.14
2023-09-07T03:32:14.788Z,20.12
2023-09-07T03:34:17.464Z,20.09
2023-09-07T03:36:19.986Z,20.12
2023-09-07T03:38:22.927Z,20.12
2023-09-07T03:40:25.482Z,20.13
2023-09-07T03:42:28.038Z,20.13
2023-09-07T03:44:30.591Z,20.13
2023-09-07T03:46:33.144Z,20.11
2023-09-07T03:48:37.552Z,20.11
2023-09-07T03:50:41.635Z,20.07
2023-09-07T03:52:44.311Z,19.96
2023-09-07T03:54:47.027Z,19.94
2023-09-07T03:56:49.414Z,19.94
2023-09-07T03:58:51.820Z,19.97
2023-09-07T04:00:54.466Z,20.00
2023-09-07T04:02:57.867Z,19.97
2023-09-07T04:05:03.017Z,19.97
2023-09-07T04:07:07.155Z,19.96
2023-09-07T04:09:09.506Z,19.96
2023-09-07T04:11:11.905Z,19.95
2023-09-07T04:13:14.325Z,19.93
2023-09-07T04:15:17.128Z,19.96
2023-09-07T04:17:20.180Z,19.87
2023-09-07T04:19:22.714Z,19.86
2023-09-07T04:21:25.269Z,19.84
2023-09-07T04:23:28.217Z,19.86
2023-09-07T04:25:30.783Z,19.86
2023-09-07T04:27:34.883Z,19.85
2023-09-07T04:29:39.119Z,19.77
2023-09-07T04:31:41.625Z,19.74
2023-09-07T04:33:44.207Z,19.70
2023-09-07T04:35:46.769Z,19.74
2023-09-07T04:37:49.237Z,19.77
2023-09-07T04:39:55.153Z,19.85
2023-09-07T04:41:59.250Z,19.86
2023-09-07T04:44:01.809Z,19.78
2023-09-07T04:46:04.846Z,19.84
2023-09-07T04:48:07.509Z,19.91
2023-09-07T04:50:10.516Z,20.00
2023-09-07T04:52:13.029Z,20.10
2023-09-07T04:54:17.540Z,20.18
2023-09-07T04:56:20.740Z,20.27
2023-09-07T04:58:23.160Z,20.39
2023-09-07T05:00:25.954Z,20.35
2023-09-07T05:02:28.424Z,20.38
2023-09-07T05:04:31.990Z,20.42
2023-09-07T05:06:38.277Z,20.56
2023-09-07T05:08:42.120Z,20.55
2023-09-07T05:10:44.648Z,20.61
2023-09-07T05:12:48.405Z,20.70
2023-09-07T05:14:50.828Z,20.77
2023-09-07T05:16:54.212Z,20.81
2023-09-07T05:18:56.823Z,20.97
2023-09-07T05:20:59.807Z,21.12
2023-09-07T05:23:02.595Z,21.17
2023-09-07T05:25:05.595Z,21.24
2023-09-07T05:27:08.170Z,21.28
2023-09-07T05:29:13.013Z,21.34
2023-09-07T05:31:16.975Z,21.41
2023-09-07T05:33:20.339Z,21.49
2023-09-07T05:35:22.954Z,21.54
2023-09-07T05:37:25.577Z,21.65
2023-09-07T05:39:28.084Z,21.75
2023-09-07T05:41:30.636Z,21.74
2023-09-07T05:43:33.070Z,21.85
2023-09-07T05:45:38.150Z,21.95
2023-09-07T05:47:42.043Z,21.96
2023-09-07T05:49:44.635Z,22.08
2023-09-07T05:51:47.154Z,22.07
2023-09-07T05:53:49.828Z,22.14
2023-09-07T05:55:52.579Z,22.28
2023-09-07T05:57:58.846Z,22.37
2023-09-07T06:00:04.148Z,22.51
2023-09-07T06:02:15.793Z,22.52
2023-09-07T06:04:18.454Z,22.66
2023-09-07T06:06:21.152Z,22.63
2023-09-07T06:08:23.920Z,22.81
2023-09-07T06:10:26.459Z,22.96
2023-09-07T06:12:28.929Z,23.09
2023-09-07T06:14:31.450Z,23.23
2023-09-07T06:16:34.121Z,23.38
2023-09-07T06:18:36.881Z,23.53
2023-09-07T06:20:39.454Z,23.64
2023-09-07T06:22:43.041Z,23.55
2023-09-07T06:24:45.610Z,23.67
2023-09-07T06:26:49.726Z,23.68
2023-09-07T06:28:52.546Z,23.78
2023-09-07T06:30:55.082Z,23.93
2023-09-07T06:32:58.743Z,23.99
2023-09-07T06:35:02.464Z,24.15
2023-09-07T06:37:05.910Z,24.28
2023-09-07T06:39:08.432Z,24.33
2023-09-07T06:41:10.953Z,24.29
2023-09-07T06:43:14.250Z,24.49
2023-09-07T06:45:18.508Z,24.49
2023-09-07T06:47:20.989Z,24.70
2023-09-07T06:49:24.041Z,24.77
2023-09-07T06:51:26.562Z,24.95
2023-09-07T06:53:44.471Z,25.02
2023-09-07T06:56:01.944Z,25.09
2023-09-07T06:58:05.372Z,25.25
2023-09-07T07:00:08.802Z,25.39
2023-09-07T07:02:12.852Z,25.51
2023-09-07T07:04:15.468Z,25.61
2023-09-07T07:06:18.050Z,25.69
2023-09-07T07:08:20.763Z,25.76
2023-09-07T07:10:23.247Z,25.83
2023-09-07T07:12:26.256Z,25.93
2023-09-07T07:14:28.790Z,26.01
2023-09-07T07:16:31.754Z,26.11
2023-09-07T07:18:34.534Z,26.21
2023-09-07T07:20:41.408Z,26.35
2023-09-07T07:22:44.483Z,26.47
2023-09-07T07:24:49.923Z,26.41
2023-09-07T07:26:56.004Z,26.45
2023-09-07T07:28:58.431Z,26.54
2023-09-07T07:31:10.496Z,26.70
2023-09-07T07:33:14.452Z,26.87
2023-09-07T07:35:17.291Z,27.02
2023-09-07T07:37:19.654Z,27.02
2023-09-07T07:39:22.195Z,27.11
2023-09-07T07:41:24.830Z,27.25
2023-09-07T07:43:27.683Z,27.32
2023-09-07T07:45:30.359Z,27.46
2023-09-07T07:47:33.667Z,27.57
2023-09-07T07:49:37.455Z,27.70
2023-09-07T07:51:40.430Z,27.82
2023-09-07T07:53:43.208Z,27.88
2023-09-07T07:55:47.709Z,28.00
2023-09-07T07:57:53.552Z,28.10
2023-09-07T07:59:57.744Z,28.16
2023-09-07T08:02:01.803Z,28.17
2023-09-07T08:04:05.102Z,28.27
2023-09-07T08:06:08.991Z,28.35
2023-09-07T08:08:11.527Z,28.41
2023-09-07T08:10:14.223Z,28.42
2023-09-07T08:12:16.886Z,28.55
2023-09-07T08:14:19.501Z,28.49
2023-09-07T08:16:22.028Z,28.50
2023-09-07T08:18:25.862Z,28.63
2023-09-07T08:20:29.065Z,28.67
2023-09-07T08:22:33.446Z,28.75
2023-09-07T08:24:35.879Z,28.83
2023-09-07T08:26:40.629Z,28.91
2023-09-07T08:28:47.885Z,29.03
2023-09-07T08:30:54.939Z,29.11
2023-09-07T08:32:57.626Z,29.17
2023-09-07T08:35:02.437Z,29.29
2023-09-07T08:37:06.829Z,29.40
2023-09-07T08:39:11.758Z,29.46
2023-09-07T08:41:15.414Z,29.45
2023-09-07T08:43:20.459Z,29.55
2023-09-07T08:45:27.505Z,29.66
2023-09-07T08:47:32.992Z,29.71
2023-09-07T08:49:35.564Z,29.76
2023-09-07T08:51:38.989Z,29.77
2023-09-07T08:53:42.571Z,29.77
2023-09-07T08:55:45.472Z,29.85
2023-09-07T08:57:48.254Z,29.87
2023-09-07T08:59:50.992Z,29.89
2023-09-07T09:01:58.188Z,29.95
2023-09-07T09:04:01.021Z,30.06
2023-09-07T09:06:05.705Z,30.15
2023-09-07T09:08:11.332Z,30.25
2023-09-07T09:10:14.396Z,30.30
2023-09-07T09:12:17.112Z,30.27
2023-09-07T09:14:26.019Z,30.30
2023-09-07T09:16:28.534Z,30.40
2023-09-07T09:18:31.637Z,30.45
2023-09-07T09:20:34.519Z,30.53
2023-09-07T09:22:37.436Z,30.65
2023-09-07T09:24:40.113Z,30.73
2023-09-07T09:26:42.713Z,30.81
2023-09-07T09:28:49.172Z,30.88
2023-09-07T09:30:52.224Z,30.96
2023-09-07T09:32:55.465Z,31.01
2023-09-07T09:34:58.720Z,31.03
2023-09-07T09:37:01.614Z,31.15
2023-09-07T09:39:07.180Z,31.24
2023-09-07T09:41:11.116Z,31.30
2023-09-07T09:43:14.557Z,31.33
2023-09-07T09:45:17.390Z,31.29
2023-09-07T09:47:21.595Z,31.32
2023-09-07T09:49:24.795Z,31.38
2023-09-07T09:51:29.113Z,31.45
2023-09-07T09:53:33.008Z,31.52
2023-09-07T09:55:36.303Z,31.55
2023-09-07T09:57:38.916Z,31.64
2023-09-07T09:59:41.408Z,31.73
2023-09-07T10:01:48.692Z,31.78
2023-09-07T10:03:53.077Z,31.85
2023-09-07T10:05:55.869Z,31.93
2023-09-07T10:08:06.894Z,31.92
2023-09-07T10:10:12.535Z,32.00
2023-09-07T10:12:17.411Z,31.98
2023-09-07T10:14:20.758Z,31.99
2023-09-07T10:16:23.295Z,31.96
2023-09-07T10:18:36.368Z,31.98
2023-09-07T10:20:54.422Z,32.01
2023-09-07T10:23:06.279Z,32.07
2023-09-07T10:25:20.491Z,32.13
2023-09-07T10:27:22.850Z,32.20
2023-09-07T10:29:27.243Z,32.20
2023-09-07T10:31:44.218Z,32.20
2023-09-07T10:33:54.368Z,32.24
2023-09-07T10:35:57.987Z,32.22
2023-09-07T10:38:02.516Z,32.22
2023-09-07T10:40:07.100Z,32.25
2023-09-07T10:42:09.497Z,32.31
2023-09-07T10:44:12.310Z,32.39
2023-09-07T10:46:14.953Z,32.47
2023-09-07T10:48:18.866Z,32.50
2023-09-07T10:50:21.564Z,32.51
2023-09-07T10:52:24.138Z,32.46
2023-09-07T10:54:27.502Z,32.44
2023-09-07T10:56:30.076Z,32.48
2023-09-07T10:58:40.046Z,32.49
2023-09-07T11:00:42.560Z,32.56
2023-09-07T11:02:45.404Z,32.59
2023-09-07T11:04:48.018Z,32.65
2023-09-07T11:06:51.589Z,32.71
2023-09-07T11:08:54.165Z,32.72
2023-09-07T11:10:56.670Z,32.78
2023-09-07T11:13:02.852Z,32.86
2023-09-07T11:15:06.024Z,32.92
2023-09-07T11:17:08.616Z,32.95
2023-09-07T11:19:11.394Z,32.97
2023-09-07T11:21:13.922Z,32.96
2023-09-07T11:23:16.534Z,32.94
2023-09-07T11:25:18.952Z,32.93
2023-09-07T11:27:23.411Z,32.86
2023-09-07T11:29:26.666Z,32.96
2023-09-07T11:31:29.305Z,33.07
2023-09-07T11:33:35.742Z,33.07
2023-09-07T11:35:38.297Z,33.09
2023-09-07T11:37:41.854Z,33.08
2023-09-07T11:39:44.809Z,33.10
2023-09-07T11:41:47.456Z,33.10
2023-09-07T11:43:49.805Z,33.08
2023-09-07T11:45:52.362Z,33.04
2023-09-07T11:47:54.977Z,33.02
2023-09-07T11:49:57.471Z,32.99
2023-09-07T11:52:00.356Z,33.01
2023-09-07T11:54:06.537Z,33.07
2023-09-07T11:56:09.390Z,33.16
2023-09-07T11:58:11.843Z,33.22
2023-09-07T12:00:16.077Z,33.24
2023-09-07T12:02:19.102Z,33.30
2023-09-07T12:04:21.699Z,33.37
2023-09-07T12:06:25.272Z,33.30
2023-09-07T12:08:27.767Z,33.32
2023-09-07T12:10:30.278Z,33.24
2023-09-07T12:12:32.719Z,33.23
2023-09-07T12:14:35.199Z,33.13
2023-09-07T12:16:37.848Z,33.15
2023-09-07T12:18:40.492Z,33.16
2023-09-07T12:20:44.552Z,33.12
2023-09-07T12:22:47.076Z,33.10
2023-09-07T12:25:02.274Z,33.07
2023-09-07T12:27:12.957Z,33.07
2023-09-07T12:29:15.482Z,33.10
2023-09-07T12:31:18.225Z,33.16
2023-09-07T12:33:20.637Z,33.13
2023-09-07T12:35:23.233Z,33.16
2023-09-07T12:37:26.197Z,33.19
2023-09-07T12:39:28.617Z,33.25
2023-09-07T12:41:32.231Z,33.29
2023-09-07T12:43:35.407Z,33.34
2023-09-07T12:45:38.266Z,33.40
2023-09-07T12:47:41.485Z,33.40
2023-09-07T12:49:44.070Z,33.43
2023-09-07T12:51:49.461Z,33.33
2023-09-07T12:53:52.697Z,33.37
2023-09-07T12:55:55.533Z,33.39
2023-09-07T12:57:58.135Z,33.38
2023-09-07T13:00:01.081Z,33.32
2023-09-07T13:02:03.934Z,33.38
2023-09-07T13:04:06.610Z,33.38
2023-09-07T13:06:08.956Z,33.44
2023-09-07T13:08:12.055Z,33.48
2023-09-07T13:10:14.428Z,33.48
2023-09-07T13:12:17.098Z,33.48
2023-09-07T13:14:19.497Z,33.44
2023-09-07T13:16:21.907Z,33.43
2023-09-07T13:18:24.756Z,33.43
2023-09-07T13:20:28.147Z,33.43
2023-09-07T13:22:31.025Z,33.46
2023-09-07T13:24:33.483Z,33.42
2023-09-07T13:26:35.939Z,33.51
2023-09-07T13:28:38.489Z,33.53
2023-09-07T13:30:40.997Z,33.56
2023-09-07T13:32:43.380Z,33.51
2023-09-07T13:34:45.720Z,33.40
2023-09-07T13:36:48.244Z,33.41
2023-09-07T13:38:52.902Z,33.43
2023-09-07T13:40:55.872Z,33.42
2023-09-07T13:42:58.556Z,33.36
2023-09-07T13:45:00.945Z,33.36
2023-09-07T13:47:03.824Z,33.32
2023-09-07T13:49:06.376Z,33.27
2023-09-07T13:51:08.964Z,33.15
2023-09-07T13:53:11.474Z,33.12
2023-09-07T13:55:14.321Z,33.11
2023-09-07T13:57:16.823Z,33.01
2023-09-07T13:59:19.091Z,32.84
2023-09-07T14:01:22.785Z,32.73
2023-09-07T14:03:25.170Z,32.60
2023-09-07T14:05:27.586Z,32.51
2023-09-07T14:07:29.968Z,32.53
2023-09-07T14:09:32.437Z,32.56
2023-09-07T14:11:34.979Z,32.52
2023-09-07T14:13:37.573Z,32.57
2023-09-07T14:15:40.029Z,32.58
2023-09-07T14:17:42.572Z,32.59
2023-09-07T14:19:46.849Z,32.57
2023-09-07T14:21:49.334Z,32.55
2023-09-07T14:23:51.615Z,32.49
2023-09-07T14:25:54.845Z,32.42
2023-09-07T14:27:57.288Z,32.40
2023-09-07T14:29:59.760Z,32.35
2023-09-07T14:32:02.298Z,32.32
2023-09-07T14:34:04.802Z,32.32
2023-09-07T14:36:08.333Z,32.26
2023-09-07T14:38:10.868Z,32.26
2023-09-07T14:40:14.937Z,32.23
2023-09-07T14:42:18.524Z,32.22
2023-09-07T14:44:21.738Z,32.25
2023-09-07T14:46:26.209Z,32.19
2023-09-07T14:48:28.703Z,32.16
2023-09-07T14:50:31.062Z,32.14
2023-09-07T14:52:38.489Z,32.11
2023-09-07T14:54:42.649Z,32.00
2023-09-07T14:56:45.179Z,32.04
2023-09-07T14:58:47.809Z,32.02
2023-09-07T15:00:50.267Z,32.04
2023-09-07T15:02:52.760Z,32.00
2023-09-07T15:04:55.156Z,31.89
2023-09-07T15:06:57.668Z,31.86
2023-09-07T15:09:00.040Z,31.84
2023-09-07T15:11:02.512Z,31.79
2023-09-07T15:13:05.220Z,31.76
2023-09-07T15:15:08.570Z,31.71
2023-09-07T15:17:11.091Z,31.68
2023-09-07T15:19:13.457Z,31.63
2023-09-07T15:21:15.814Z,31.58
2023-09-07T15:23:18.255Z,31.55
2023-09-07T15:25:20.599Z,31.52
2023-09-07T15:27:23.063Z,31.51
2023-09-07T15:29:25.926Z,31.43
2023-09-07T15:31:28.396Z,31.43
2023-09-07T15:33:31.548Z,31.40
2023-09-07T15:35:34.104Z,31.37
2023-09-07T15:37:36.932Z,31.28
2023-09-07T15:39:39.364Z,31.29
2023-09-07T15:41:41.846Z,31.29
2023-09-07T15:43:45.007Z,31.24
2023-09-07T15:45:47.624Z,31.24
2023-09-07T15:47:50.542Z,31.26
2023-09-07T15:49:53.929Z,31.27
2023-09-07T15:51:56.319Z,31.22
2023-09-07T15:53:58.899Z,31.14
2023-09-07T15:56:02.431Z,31.12
2023-09-07T15:58:05.058Z,31.12
2023-09-07T16:00:08.620Z,31.07
2023-09-07T16:02:14.879Z,31.09
2023-09-07T16:04:17.579Z,31.02
2023-09-07T16:06:20.204Z,30.98
2023-09-07T16:08:23.060Z,30.94
2023-09-07T16:10:28.603Z,30.95
2023-09-07T16:12:31.462Z,30.98
2023-09-07T16:14:33.981Z,30.96
2023-09-07T16:16:36.389Z,30.93
2023-09-07T16:18:38.825Z,30.90
2023-09-07T16:20:41.351Z,30.90
2023-09-07T16:22:43.786Z,30.89
2023-09-07T16:24:46.155Z,30.87
2023-09-07T16:26:48.629Z,30.83
2023-09-07T16:28:50.917Z,30.77
2023-09-07T16:30:53.499Z,30.74
2023-09-07T16:32:56.171Z,30.71
2023-09-07T16:34:58.614Z,30.64
2023-09-07T16:37:01.015Z,30.54
2023-09-07T16:39:03.582Z,30.53
2023-09-07T16:41:07.435Z,30.50
2023-09-07T16:43:09.868Z,30.49
2023-09-07T16:45:12.209Z,30.46
2023-09-07T16:47:14.595Z,30.44
2023-09-07T16:49:17.950Z,30.44
2023-09-07T16:51:20.483Z,30.28
2023-09-07T16:53:23.077Z,30.28
2023-09-07T16:55:25.780Z,30.29
2023-09-07T16:57:33.413Z,30.24
2023-09-07T17:01:41.388Z,30.17
2023-09-07T17:03:44.038Z,30.16
2023-09-07T17:05:46.733Z,30.11
2023-09-07T17:07:49.167Z,30.09
2023-09-07T17:09:52.223Z,30.02
2023-09-07T17:11:54.565Z,29.95
2023-09-07T17:14:02.448Z,29.83
2023-09-07T17:16:05.541Z,29.81
2023-09-07T17:18:07.974Z,29.82
2023-09-07T17:20:10.829Z,29.82
2023-09-07T17:22:14.873Z,29.78
2023-09-07T17:24:17.251Z,29.74
2023-09-07T17:26:19.772Z,29.73
2023-09-07T17:28:22.247Z,29.68
2023-09-07T17:30:25.945Z,29.59
2023-09-07T17:32:29.814Z,29.59
2023-09-07T17:34:35.977Z,29.51
2023-09-07T17:36:38.247Z,29.46
2023-09-07T17:38:40.967Z,29.43
2023-09-07T17:40:43.320Z,29.37
2023-09-07T17:42:45.820Z,29.35
2023-09-07T17:44:48.139Z,29.22
2023-09-07T17:46:50.793Z,29.23
2023-09-07T17:48:53.405Z,29.20
2023-09-07T17:50:56.117Z,29.23
2023-09-07T17:52:58.568Z,29.22
2023-09-07T17:55:01.010Z,29.14
2023-09-07T17:57:03.569Z,29.12
2023-09-07T17:59:06.058Z,29.08
2023-09-07T18:01:13.696Z,29.00
2023-09-07T18:03:16.283Z,28.98
2023-09-07T18:05:22.499Z,28.91
2023-09-07T18:07:25.595Z,28.92
2023-09-07T18:09:28.009Z,28.86
2023-09-07T18:11:30.495Z,28.86
2023-09-07T18:13:33.145Z,28.82
2023-09-07T18:15:35.586Z,28.79
2023-09-07T18:17:41.264Z,28.75
2023-09-07T18:19:46.040Z,28.71
2023-09-07T18:21:48.417Z,28.69
2023-09-07T18:23:50.847Z,28.59
2023-09-07T18:25:53.231Z,28.48
2023-09-07T18:27:55.624Z,28.32
2023-09-07T18:30:01.710Z,28.35
2023-09-07T18:32:04.693Z,28.24
2023-09-07T18:34:08.236Z,28.24
2023-09-07T18:36:11.705Z,28.26
2023-09-07T18:38:14.351Z,28.17
2023-09-07T18:40:16.772Z,28.13
2023-09-07T18:42:19.321Z,28.05
2023-09-07T18:44:21.712Z,27.99
2023-09-07T18:46:25.127Z,27.86
2023-09-07T18:48:27.580Z,27.66
2023-09-07T18:50:30.005Z,27.64
2023-09-07T18:52:34.912Z,27.53
2023-09-07T18:54:37.551Z,27.53
2023-09-07T18:56:40.788Z,27.45
2023-09-07T18:58:43.328Z,27.41
2023-09-07T19:00:48.626Z,27.32
2023-09-07T19:02:51.551Z,27.32
2023-09-07T19:04:54.152Z,27.33
2023-09-07T19:06:56.882Z,27.23
2023-09-07T19:09:00.253Z,27.11
2023-09-07T19:11:03.100Z,27.08
2023-09-07T19:13:05.864Z,27.07
2023-09-07T19:15:08.682Z,27.11
2023-09-07T19:17:12.103Z,27.12
2023-09-07T19:19:14.618Z,26.98
2023-09-07T19:21:24.660Z,26.86
2023-09-07T19:23:27.367Z,26.82
2023-09-07T19:25:31.955Z,26.83
2023-09-07T19:27:35.673Z,26.83
2023-09-07T19:29:41.329Z,26.70
2023-09-07T19:31:43.987Z,26.61
2023-09-07T19:33:50.759Z,26.56
2023-09-07T19:35:53.131Z,26.43
2023-09-07T19:37:55.542Z,26.38
2023-09-07T19:39:58.048Z,26.44
2023-09-07T19:42:00.457Z,26.45
2023-09-07T19:44:03.693Z,26.43
2023-09-07T19:46:06.195Z,26.42
2023-09-07T19:48:08.798Z,26.44
2023-09-07T19:50:11.948Z,26.42
2023-09-07T19:52:14.371Z,26.39
2023-09-07T19:54:16.880Z,26.38
2023-09-07T19:56:25.294Z,26.35
2023-09-07T19:58:27.873Z,26.36
2023-09-07T20:00:30.281Z,26.33
2023-09-07T20:02:32.838Z,26.29
2023-09-07T20:04:35.309Z,26.26
2023-09-07T20:06:37.803Z,26.17
2023-09-07T20:08:41.397Z,26.15
2023-09-07T20:10:44.391Z,26.10
2023-09-07T20:12:47.113Z,25.89
2023-09-07T20:14:50.255Z,25.79
2023-09-07T20:16:52.699Z,25.67
2023-09-07T20:18:55.378Z,25.63
2023-09-07T20:20:57.754Z,25.62
2023-09-07T20:23:01.316Z,25.55
2023-09-07T20:25:04.796Z,25.54
2023-09-07T20:27:07.381Z,25.52
2023-09-07T20:29:10.159Z,25.51
2023-09-07T20:31:12.794Z,25.54
2023-09-07T20:33:16.200Z,25.55
2023-09-07T20:35:19.617Z,25.53
2023-09-07T20:37:22.085Z,25.56
2023-09-07T20:39:24.966Z,25.57
2023-09-07T20:41:27.768Z,25.57
2023-09-07T20:43:30.530Z,25.55
2023-09-07T20:45:33.083Z,25.53
2023-09-07T20:47:35.648Z,25.45
2023-09-07T20:49:38.561Z,25.43
2023-09-07T20:51:41.705Z,25.45
2023-09-07T20:53:44.124Z,25.47
2023-09-07T20:55:46.531Z,25.50
2023-09-07T20:57:50.283Z,25.49
2023-09-07T20:59:54.191Z,25.46
2023-09-07T21:01:56.571Z,25.48
2023-09-07T21:03:59.207Z,25.47
2023-09-07T21:06:01.909Z,25.47
2023-09-07T21:08:07.549Z,25.47
2023-09-07T21:10:12.280Z,25.48
2023-09-07T21:12:14.633Z,25.39
2023-09-07T21:14:17.200Z,25.37
2023-09-07T21:16:19.559Z,25.27
2023-09-07T21:18:22.059Z,25.30
2023-09-07T21:20:24.560Z,25.33
2023-09-07T21:22:29.928Z,25.30
2023-09-07T21:24:32.367Z,25.26
2023-09-07T21:26:34.758Z,25.23
2023-09-07T21:28:37.165Z,25.28
2023-09-07T21:30:39.710Z,25.28
2023-09-07T21:32:42.115Z,25.32
2023-09-07T21:34:44.705Z,25.19
2023-09-07T21:36:47.244Z,25.10
2023-09-07T21:38:49.793Z,25.14
2023-09-07T21:40:52.878Z,25.05
2023-09-07T21:42:56.576Z,25.07
2023-09-07T21:45:00.928Z,24.93
2023-09-07T21:47:03.453Z,24.86
2023-09-07T21:49:05.969Z,24.87
2023-09-07T21:51:08.804Z,24.83
2023-09-07T21:53:11.587Z,24.83
2023-09-07T21:55:14.181Z,24.78
2023-09-07T21:57:18.228Z,24.79
2023-09-07T21:59:20.681Z,24.82
2023-09-07T22:01:23.293Z,24.87
2023-09-07T22:03:25.690Z,24.75
2023-09-07T22:05:28.940Z,24.66
2023-09-07T22:07:31.393Z,24.64
2023-09-07T22:09:33.830Z,24.60
2023-09-07T22:11:36.266Z,24.51
2023-09-07T22:13:38.677Z,24.48
2023-09-07T22:15:41.043Z,24.45
2023-09-07T22:17:44.653Z,24.34
2023-09-07T22:19:47.051Z,24.42
2023-09-07T22:21:49.517Z,24.47
2023-09-07T22:23:52.213Z,24.51
2023-09-07T22:25:54.639Z,24.41
2023-09-07T22:27:57.088Z,24.42
2023-09-07T22:29:59.510Z,24.50
2023-09-07T22:32:02.700Z,24.45
2023-09-07T22:34:05.047Z,24.43
2023-09-07T22:36:07.612Z,24.28
2023-09-07T22:38:09.912Z,24.20
2023-09-07T22:40:17.064Z,24.09
2023-09-07T22:42:19.399Z,23.83
2023-09-07T22:44:21.781Z,23.76
2023-09-07T22:46:24.280Z,23.84
2023-09-07T22:48:26.619Z,23.79
2023-09-07T22:50:29.309Z,23.79
2023-09-07T22:52:31.638Z,23.77
2023-09-07T22:54:34.048Z,23.73
2023-09-07T22:56:36.470Z,23.77
2023-09-07T22:58:41.416Z,23.86
2023-09-07T23:00:44.849Z,23.93
2023-09-07T23:02:47.277Z,23.99
2023-09-07T23:04:49.783Z,24.05
2023-09-07T23:06:52.286Z,24.05
2023-09-07T23:08:54.945Z,24.04
2023-09-07T23:10:57.458Z,24.02
2023-09-07T23:12:59.934Z,24.02
2023-09-07T23:15:02.613Z,23.96
2023-09-07T23:17:05.069Z,24.00
2023-09-07T23:19:07.541Z,23.99
2023-09-07T23:21:10.112Z,23.95
2023-09-07T23:23:12.485Z,23.96
2023-09-07T23:25:14.944Z,23.89
2023-09-07T23:27:17.879Z,23.89
2023-09-07T23:29:20.285Z,23.87
2023-09-07T23:31:23.454Z,23.84
2023-09-07T23:33:26.771Z,23.86
2023-09-07T23:35:30.588Z,23.80
2023-09-07T23:37:34.680Z,23.75
2023-09-07T23:39:37.576Z,23.70
2023-09-07T23:41:40.099Z,23.70
2023-09-07T23:43:42.859Z,23.70
2023-09-07T23:45:45.208Z,23.73
2023-09-07T23:47:47.560Z,23.62
2023-09-07T23:49:50.235Z,23.56
2023-09-07T23:51:52.709Z,23.54
2023-09-07T23:53:56.940Z,23.55
2023-09-07T23:56:00.066Z,23.50
2023-09-07T23:58:02.534Z,23.52
